Time;durP1;ratioP1;P1;durP2;ratioP2;P2;SDS_P1;SDS_P2;PMS_P1;PMS_P2;Temp;Humidity;BMP_temperature;BMP_pressure;BME280_temperature;BME280_humidity;BME280_pressure;Samples;Min_cycle;Max_cycle;Signal;HPM_P1;HPM_P2
2021/04/20 00:01:59;;;;;;;28.57;11.33;;;1.90;99.90;;;;;;5016495;28;20571;-83
2021/04/20 00:04:26;;;;;;;23.27;11.20;;;1.80;99.90;;;;;;5033633;28;20223;-81
2021/04/20 00:06:52;;;;;;;24.00;11.60;;;1.80;99.90;;;;;;5035628;28;20197;-80
2021/04/20 00:09:19;;;;;;;23.97;11.67;;;1.80;99.90;;;;;;5034945;28;20569;-82
2021/04/20 00:11:45;;;;;;;23.50;11.43;;;1.70;99.90;;;;;;5017769;28;20212;-82
2021/04/20 00:14:16;;;;;;;24.17;10.80;;;1.70;99.90;;;;;;5012487;28;20232;-81
2021/04/20 00:16:42;;;;;;;21.63;10.97;;;1.70;99.90;;;;;;5011268;28;20227;-80
2021/04/20 00:19:09;;;;;;;27.80;11.20;;;1.70;99.90;;;;;;5015048;28;20252;-82
2021/04/20 00:21:36;;;;;;;24.27;11.10;;;1.60;99.90;;;;;;5016590;28;20254;-82
2021/04/20 00:24:04;;;;;;;25.60;11.67;;;1.60;99.90;;;;;;5015125;28;20224;-81
2021/04/20 00:26:30;;;;;;;24.70;11.37;;;1.60;99.90;;;;;;5015415;28;20319;-81
2021/04/20 00:28:57;;;;;;;24.53;11.57;;;1.60;99.90;;;;;;5014405;28;20555;-81
2021/04/20 00:31:24;;;;;;;25.60;11.90;;;1.60;99.90;;;;;;5018310;28;20212;-82
2021/04/20 00:33:51;;;;;;;21.70;10.90;;;1.50;99.90;;;;;;5014940;28;20228;-82
2021/04/20 00:36:18;;;;;;;24.33;11.00;;;1.50;99.90;;;;;;5014583;28;20200;-80
2021/04/20 00:38:44;;;;;;;20.53;10.10;;;1.50;99.90;;;;;;5009786;28;20224;-81
2021/04/20 00:41:12;;;;;;;24.43;10.63;;;1.50;99.90;;;;;;5015748;28;20207;-81
2021/04/20 00:43:40;;;;;;;27.13;11.87;;;1.50;99.90;;;;;;5011848;28;20635;-81
2021/04/20 00:46:08;;;;;;;25.73;10.47;;;1.50;99.90;;;;;;5014825;28;20454;-81
2021/04/20 00:48:40;;;;;;;24.47;11.13;;;1.40;99.90;;;;;;5012658;28;20251;-82
2021/04/20 00:51:08;;;;;;;24.90;11.13;;;1.30;99.90;;;;;;5017427;28;20467;-82
2021/04/20 00:53:34;;;;;;;24.60;11.23;;;1.30;99.90;;;;;;5008765;28;20246;-81
2021/04/20 00:56:02;;;;;;;26.10;10.87;;;1.30;99.90;;;;;;5017972;28;20967;-81
2021/04/20 00:58:28;;;;;;;26.37;11.73;;;1.30;99.90;;;;;;5018701;28;20481;-82
2021/04/20 01:00:56;;;;;;;22.87;11.10;;;1.30;99.90;;;;;;5017411;28;20246;-82
2021/04/20 01:03:22;;;;;;;24.00;11.03;;;1.30;99.90;;;;;;5008682;28;21369;-81
2021/04/20 01:05:50;;;;;;;22.83;11.10;;;1.30;99.90;;;;;;5016553;28;20291;-82
2021/04/20 01:08:19;;;;;;;24.07;10.90;;;1.20;99.90;;;;;;5017349;28;20204;-81
2021/04/20 01:10:47;;;;;;;24.13;11.07;;;1.20;99.90;;;;;;5020527;28;20471;-82
2021/04/20 01:13:14;;;;;;;24.60;11.33;;;1.10;99.90;;;;;;5020306;28;20455;-82
2021/04/20 01:15:44;;;;;;;22.97;11.70;;;1.10;99.90;;;;;;5019203;28;20240;-81
2021/04/20 01:18:12;;;;;;;23.50;10.83;;;1.10;99.90;;;;;;5019403;28;20951;-82
2021/04/20 01:20:41;;;;;;;22.20;10.73;;;1.00;99.90;;;;;;5020181;28;20513;-82
2021/04/20 01:23:11;;;;;;;21.33;10.60;;;1.00;99.90;;;;;;5016783;28;20455;-82
2021/04/20 01:25:39;;;;;;;31.70;11.33;;;1.00;99.90;;;;;;5023342;28;20216;-81
2021/04/20 01:28:06;;;;;;;25.27;11.47;;;1.00;99.90;;;;;;5015543;28;20316;-82
2021/04/20 01:30:34;;;;;;;25.10;11.07;;;0.90;99.90;;;;;;5020659;28;20495;-81
2021/04/20 01:33:04;;;;;;;22.43;10.40;;;0.90;99.90;;;;;;5020263;28;20470;-82
2021/04/20 01:35:32;;;;;;;22.10;10.60;;;0.90;99.90;;;;;;5019615;28;20443;-81
2021/04/20 01:38:01;;;;;;;25.20;10.93;;;0.90;99.90;;;;;;5019380;28;20525;-82
2021/04/20 01:40:28;;;;;;;23.30;10.23;;;0.90;99.90;;;;;;5021626;28;20646;-81
2021/04/20 01:42:56;;;;;;;23.97;9.97;;;0.80;99.90;;;;;;5015858;28;20475;-81
2021/04/20 01:45:23;;;;;;;26.60;10.73;;;0.80;99.90;;;;;;5022668;28;20459;-80
2021/04/20 01:47:50;;;;;;;24.73;10.90;;;0.90;99.90;;;;;;5017516;28;20522;-81
2021/04/20 01:50:16;;;;;;;26.37;11.40;;;0.80;99.90;;;;;;5029763;28;20196;-80
2021/04/20 01:52:44;;;;;;;25.13;10.43;;;0.80;99.90;;;;;;5037276;28;20442;-79
2021/04/20 01:55:13;;;;;;;22.77;11.07;;;0.80;99.90;;;;;;5038369;28;20471;-80
2021/04/20 01:57:41;;;;;;;22.53;10.27;;;0.80;99.90;;;;;;5028446;28;20454;-81
2021/04/20 02:00:11;;;;;;;22.43;10.97;;;0.80;99.90;;;;;;5020044;28;20483;-81
2021/04/20 02:02:38;;;;;;;28.33;11.70;;;0.70;99.90;;;;;;5017016;28;20968;-81
2021/04/20 02:05:06;;;;;;;25.07;11.23;;;0.70;99.90;;;;;;5020527;28;20266;-81
2021/04/20 02:07:32;;;;;;;25.13;11.37;;;0.60;99.90;;;;;;5020455;28;20454;-80
2021/04/20 02:10:01;;;;;;;27.40;12.10;;;0.60;99.90;;;;;;5019882;28;20454;-81
2021/04/20 02:12:28;;;;;;;22.83;10.87;;;0.60;99.90;;;;;;5017842;28;20451;-80
2021/04/20 02:14:55;;;;;;;25.43;11.07;;;0.60;99.90;;;;;;5015363;28;20502;-80
2021/04/20 02:17:23;;;;;;;28.27;10.63;;;0.60;99.90;;;;;;5012932;28;20883;-81
2021/04/20 02:19:50;;;;;;;25.30;11.63;;;0.50;99.90;;;;;;5012492;28;20569;-81
2021/04/20 02:22:18;;;;;;;25.33;10.97;;;0.50;99.90;;;;;;5017134;28;20502;-81
2021/04/20 02:24:45;;;;;;;24.43;11.00;;;0.50;99.90;;;;;;5014419;28;20483;-80
2021/04/20 02:27:13;;;;;;;25.77;11.37;;;0.40;99.90;;;;;;5016946;28;20680;-81
2021/04/20 02:29:40;;;;;;;30.03;11.93;;;0.40;99.90;;;;;;5013518;28;20495;-81
2021/04/20 02:32:07;;;;;;;23.70;10.67;;;0.40;99.90;;;;;;5014656;28;20487;-81
2021/04/20 02:34:34;;;;;;;29.00;11.67;;;0.40;99.90;;;;;;5014815;28;21006;-82
2021/04/20 02:37:01;;;;;;;23.67;10.70;;;0.40;99.90;;;;;;5015553;28;20479;-81
2021/04/20 02:39:30;;;;;;;23.77;10.67;;;0.40;99.90;;;;;;5016298;28;20542;-82
2021/04/20 02:41:58;;;;;;;23.33;10.70;;;0.30;99.90;;;;;;5015117;28;20201;-81
2021/04/20 02:44:25;;;;;;;22.20;10.13;;;0.30;99.90;;;;;;5012416;28;20517;-81
2021/04/20 02:46:51;;;;;;;22.53;10.70;;;0.40;99.90;;;;;;5010356;28;20487;-81
2021/04/20 02:49:19;;;;;;;23.53;10.87;;;0.30;99.90;;;;;;5015610;28;20208;-81
2021/04/20 02:51:47;;;;;;;29.67;11.17;;;0.30;99.90;;;;;;5018313;28;21279;-81
2021/04/20 02:54:14;;;;;;;22.30;10.90;;;0.30;99.90;;;;;;5014933;28;20506;-81
2021/04/20 02:56:40;;;;;;;25.83;12.17;;;0.30;99.90;;;;;;5017654;28;20487;-81
2021/04/20 02:59:10;;;;;;;25.47;11.47;;;0.30;99.90;;;;;;5019406;28;20932;-81
2021/04/20 03:01:39;;;;;;;31.13;11.43;;;0.30;99.90;;;;;;5020346;28;20463;-81
2021/04/20 03:04:06;;;;;;;26.17;11.33;;;0.30;99.90;;;;;;5017744;28;20310;-82
2021/04/20 03:06:33;;;;;;;23.17;10.53;;;0.20;99.90;;;;;;5017003;28;20566;-80
2021/04/20 03:09:02;;;;;;;30.30;12.10;;;0.20;99.90;;;;;;5015431;28;20459;-81
2021/04/20 03:11:34;;;;;;;31.63;13.27;;;0.20;99.90;;;;;;5016079;28;20467;-81
2021/04/20 03:14:03;;;;;;;25.60;11.33;;;0.20;99.90;;;;;;5015749;28;20255;-81
2021/04/20 03:17:26;;;;;;;25.00;11.77;;;0.20;99.90;;;;;;5014461;28;20456;-81
2021/04/20 03:19:55;;;;;;;27.63;11.30;;;0.20;99.90;;;;;;5011486;28;20495;-81
2021/04/20 03:22:22;;;;;;;28.00;11.50;;;0.20;99.90;;;;;;5012916;28;20932;-81
2021/04/20 03:25:19;;;;;;;24.37;11.53;;;0.20;99.90;;;;;;5013472;28;20495;-81
2021/04/20 03:27:48;;;;;;;26.23;10.73;;;0.20;99.90;;;;;;5012612;28;20909;-81
2021/04/20 03:30:17;;;;;;;23.50;10.47;;;0.20;99.90;;;;;;5011566;28;20455;-81
2021/04/20 03:32:49;;;;;;;24.13;10.40;;;0.20;99.90;;;;;;5011650;28;20462;-82
2021/04/20 03:35:21;;;;;;;29.50;11.97;;;0.20;99.90;;;;;;5013916;28;20903;-81
2021/04/20 03:37:55;;;;;;;23.73;10.57;;;0.20;99.90;;;;;;5025102;28;20453;-81
2021/04/20 03:40:24;;;;;;;27.30;11.70;;;0.10;99.90;;;;;;5037877;28;21023;-81
2021/04/20 03:42:54;;;;;;;26.90;11.13;;;0.10;99.90;;;;;;5037107;28;20452;-80
2021/04/20 03:45:23;;;;;;;27.50;12.20;;;0.10;99.90;;;;;;5027206;28;20482;-81
2021/04/20 03:47:54;;;;;;;28.17;11.63;;;0.10;99.90;;;;;;5014051;28;20471;-81
2021/04/20 03:50:26;;;;;;;25.70;10.80;;;0.10;99.90;;;;;;5014292;28;20780;-81
2021/04/20 03:52:56;;;;;;;26.27;11.70;;;0.00;99.90;;;;;;5014324;28;20546;-80
2021/04/20 03:55:26;;;;;;;25.73;10.73;;;0.10;99.90;;;;;;5013334;28;20456;-81
2021/04/20 03:57:55;;;;;;;26.97;11.60;;;0.00;99.90;;;;;;5011057;28;20487;-81
2021/04/20 04:00:23;;;;;;;25.57;11.13;;;0.00;99.90;;;;;;5013388;28;21357;-82
2021/04/20 04:02:54;;;;;;;27.83;11.33;;;-0.10;99.90;;;;;;5014361;28;20487;-81
2021/04/20 04:05:25;;;;;;;25.07;11.40;;;0.00;99.90;;;;;;5009276;28;20548;-81
2021/04/20 04:07:53;;;;;;;26.13;10.90;;;-0.10;99.90;;;;;;5011453;28;20477;-81
2021/04/20 04:10:21;;;;;;;27.50;11.20;;;-0.10;99.90;;;;;;5014862;28;20457;-83
2021/04/20 04:12:54;;;;;;;26.30;11.63;;;0.00;99.90;;;;;;5013252;28;20530;-81
2021/04/20 04:15:22;;;;;;;34.43;12.30;;;-0.10;99.90;;;;;;5013433;28;20991;-81
2021/04/20 04:17:49;;;;;;;28.47;11.83;;;-0.10;99.90;;;;;;5010646;28;20495;-81
2021/04/20 04:20:18;;;;;;;25.30;11.40;;;0.00;99.90;;;;;;5011165;28;20490;-81
2021/04/20 04:22:52;;;;;;;26.37;11.23;;;-0.10;99.90;;;;;;5013713;28;20525;-81
2021/04/20 04:25:22;;;;;;;33.93;12.43;;;0.00;99.90;;;;;;5010862;28;21291;-81
2021/04/20 04:27:54;;;;;;;30.90;11.87;;;0.00;99.90;;;;;;5009893;28;20381;-81
2021/04/20 04:30:23;;;;;;;27.80;11.97;;;0.00;99.90;;;;;;5014942;28;21075;-81
2021/04/20 04:32:50;;;;;;;27.60;11.90;;;0.00;99.90;;;;;;5015459;28;20451;-82
2021/04/20 04:35:20;;;;;;;26.80;11.80;;;0.00;99.90;;;;;;5019182;28;20470;-82
2021/04/20 04:37:47;;;;;;;24.80;11.23;;;0.00;99.90;;;;;;5018748;28;20498;-83
2021/04/20 04:40:17;;;;;;;27.77;11.90;;;0.10;99.90;;;;;;5019503;28;20488;-82
2021/04/20 04:42:44;;;;;;;27.43;12.43;;;0.10;99.90;;;;;;5021064;28;20446;-82
2021/04/20 04:45:14;;;;;;;28.53;12.00;;;0.10;99.90;;;;;;5017547;28;20907;-82
2021/04/20 04:47:41;;;;;;;31.73;12.47;;;0.20;99.90;;;;;;5021299;28;20450;-83
2021/04/20 04:50:12;;;;;;;30.60;12.40;;;0.30;99.90;;;;;;4998077;28;20506;-82
2021/04/20 04:52:39;;;;;;;32.93;12.37;;;0.40;99.90;;;;;;5013845;28;20459;-82
2021/04/20 04:55:08;;;;;;;33.10;12.90;;;0.40;99.90;;;;;;5014006;28;20566;-83
2021/04/20 04:57:35;;;;;;;26.43;11.70;;;0.50;99.90;;;;;;5017136;28;20471;-83
2021/04/20 05:00:04;;;;;;;30.30;12.00;;;0.60;99.90;;;;;;5014446;28;20235;-83
2021/04/20 05:02:34;;;;;;;27.63;12.30;;;0.70;99.90;;;;;;5015009;28;20231;-83
2021/04/20 05:05:05;;;;;;;25.27;10.80;;;0.80;99.90;;;;;;5014142;28;20267;-82
2021/04/20 05:07:32;;;;;;;28.60;11.40;;;0.90;99.90;;;;;;5013197;28;20514;-84
2021/04/20 05:10:03;;;;;;;29.27;11.67;;;1.00;99.90;;;;;;5014539;28;20532;-81
2021/04/20 05:12:34;;;;;;;27.10;12.40;;;1.40;99.90;;;;;;5016453;28;20692;-83
2021/04/20 05:15:10;;;;;;;34.07;11.67;;;2.00;99.90;;;;;;5011366;28;20460;-83
2021/04/20 05:17:38;;;;;;;26.23;10.53;;;2.50;99.90;;;;;;5011251;28;20211;-83
2021/04/20 05:20:06;;;;;;;25.77;10.50;;;3.00;99.90;;;;;;5013440;28;20228;-83
2021/04/20 05:22:34;;;;;;;31.77;11.13;;;3.60;99.90;;;;;;5018235;28;20227;-82
2021/04/20 05:25:01;;;;;;;22.70;10.23;;;4.30;99.90;;;;;;5020536;28;20499;-82
2021/04/20 05:27:28;;;;;;;25.70;10.33;;;4.70;99.90;;;;;;5036486;28;20203;-82
2021/04/20 05:29:55;;;;;;;22.13;9.93;;;5.00;99.90;;;;;;5044888;28;20188;-83
2021/04/20 05:32:25;;;;;;;29.37;9.70;;;5.40;99.90;;;;;;5036375;28;20212;-81
2021/04/20 05:34:52;;;;;;;20.80;9.77;;;5.90;99.90;;;;;;5012319;28;20224;-82
2021/04/20 05:37:30;;;;;;;26.47;10.83;;;5.90;99.90;;;;;;5011927;28;20235;-82
2021/04/20 05:40:04;;;;;;;22.27;10.60;;;6.20;99.90;;;;;;5012369;28;20243;-82
2021/04/20 05:42:30;;;;;;;22.33;10.77;;;6.70;99.90;;;;;;5014021;28;20192;-82
2021/04/20 05:44:58;;;;;;;19.80;9.37;;;7.20;99.90;;;;;;5011061;28;20235;-82
2021/04/20 05:47:25;;;;;;;18.37;9.93;;;7.70;99.90;;;;;;5006388;28;20201;-83
2021/04/20 05:49:56;;;;;;;22.13;10.93;;;8.10;99.90;;;;;;5007202;28;20277;-81
2021/04/20 05:52:23;;;;;;;18.50;10.83;;;8.60;99.90;;;;;;5011934;28;20856;-82
2021/04/20 05:54:55;;;;;;;26.43;11.67;;;8.40;99.90;;;;;;5013790;28;20715;-82
2021/04/20 05:57:21;;;;;;;21.10;11.87;;;8.80;99.90;;;;;;5017401;28;20227;-81
2021/04/20 05:59:48;;;;;;;23.13;11.43;;;9.10;99.90;;;;;;5015636;28;20281;-81
2021/04/20 06:02:16;;;;;;;21.37;11.50;;;9.60;99.90;;;;;;5017272;28;20711;-82
2021/04/20 06:04:49;;;;;;;19.70;11.10;;;9.80;99.90;;;;;;5018817;28;20281;-82
2021/04/20 06:07:17;;;;;;;20.50;11.20;;;9.80;99.90;;;;;;5019268;28;20197;-82
2021/04/20 06:09:44;;;;;;;19.77;11.27;;;11.00;99.90;;;;;;5022270;28;20207;-82
2021/04/20 06:12:13;;;;;;;19.87;11.50;;;11.00;99.90;;;;;;5022967;28;20622;-83
2021/04/20 06:14:42;;;;;;;26.63;11.70;;;11.30;99.90;;;;;;5021675;28;20227;-83
2021/04/20 06:17:16;;;;;;;21.73;10.77;;;11.00;99.90;;;;;;5021988;28;20200;-82
2021/04/20 06:19:43;;;;;;;20.63;11.23;;;11.20;99.90;;;;;;5022412;28;20230;-83
2021/04/20 06:22:12;;;;;;;26.13;11.60;;;11.00;99.90;;;;;;5014429;28;20205;-83
2021/04/20 06:24:40;;;;;;;17.70;10.70;;;11.40;99.90;;;;;;5020721;28;20598;-83
2021/04/20 06:27:08;;;;;;;21.07;11.20;;;11.50;99.90;;;;;;5019148;28;20466;-83
2021/04/20 06:29:36;;;;;;;21.97;11.50;;;11.80;99.90;;;;;;5020719;28;20307;-83
2021/04/20 06:32:02;;;;;;;20.20;11.17;;;11.80;99.90;;;;;;5022199;28;20240;-82
2021/04/20 06:34:30;;;;;;;25.80;11.50;;;11.90;99.90;;;;;;5019692;28;20239;-83
2021/04/20 06:37:00;;;;;;;26.33;12.63;;;12.10;99.90;;;;;;5020672;28;20212;-83
2021/04/20 06:39:26;;;;;;;22.80;11.90;;;12.20;99.90;;;;;;5022079;28;20296;-82
2021/04/20 06:41:57;;;;;;;25.90;12.07;;;12.20;99.90;;;;;;5021078;28;20223;-82
2021/04/20 06:44:30;;;;;;;21.97;11.73;;;12.50;99.90;;;;;;5011018;28;20252;-82
2021/04/20 06:47:01;;;;;;;18.93;11.50;;;12.90;99.90;;;;;;5010510;28;20978;-81
2021/04/20 06:49:32;;;;;;;23.53;11.63;;;13.30;99.90;;;;;;5017504;28;20238;-82
2021/04/20 06:52:04;;;;;;;26.93;12.10;;;13.70;99.90;;;;;;5013288;28;20203;-83
2021/04/20 06:54:35;;;;;;;23.73;12.50;;;14.40;99.90;;;;;;5009829;28;20240;-82
2021/04/20 06:57:12;;;;;;;20.77;11.63;;;14.60;99.90;;;;;;5013181;28;20278;-82
2021/04/20 06:59:46;;;;;;;23.63;13.03;;;14.50;99.90;;;;;;5010924;28;20299;-82
2021/04/20 07:02:22;;;;;;;18.50;11.70;;;14.60;99.90;;;;;;5014997;28;20675;-82
2021/04/20 07:04:56;;;;;;;21.33;11.33;;;15.00;99.90;;;;;;5013983;28;20292;-82
2021/04/20 07:07:44;;;;;;;21.70;12.23;;;15.60;99.90;;;;;;5006354;28;20730;-82
2021/04/20 07:10:14;;;;;;;18.53;12.10;;;15.90;99.90;;;;;;4989559;28;20208;-81
2021/04/20 07:12:45;;;;;;;22.57;12.03;;;15.60;99.90;;;;;;5023158;28;20227;-81
2021/04/20 07:15:17;;;;;;;18.87;11.73;;;15.50;99.90;;;;;;5036252;28;20228;-81
2021/04/20 07:18:09;;;;;;;19.37;12.40;;;16.50;99.90;;;;;;5044610;28;20219;-81
2021/04/20 07:20:47;;;;;;;22.57;11.97;;;17.00;99.90;;;;;;5025669;28;20238;-82
2021/04/20 07:23:48;;;;;;;19.23;11.60;;;17.50;99.90;;;;;;5022044;28;20254;-83
2021/04/20 07:26:39;;;;;;;22.47;12.17;;;18.00;99.90;;;;;;4996431;28;20213;-83
2021/04/20 07:29:26;;;;;;;17.50;11.60;;;18.30;99.90;;;;;;5015674;28;20572;-82
2021/04/20 07:32:07;;;;;;;22.30;13.00;;;18.30;99.90;;;;;;5018307;28;20236;-84
2021/04/20 07:34:39;;;;;;;22.00;13.30;;;18.30;99.90;;;;;;5011037;28;20254;-83
2021/04/20 07:37:16;;;;;;;19.50;12.23;;;18.20;99.90;;;;;;5015883;28;20568;-83
2021/04/20 07:39:51;;;;;;;23.07;12.10;;;18.00;99.90;;;;;;5018620;28;20235;-82
2021/04/20 07:42:24;;;;;;;17.97;11.60;;;18.90;99.90;;;;;;5017147;28;20208;-82
2021/04/20 07:45:08;;;;;;;21.67;12.03;;;19.50;99.90;;;;;;5020263;28;20277;-84
2021/04/20 07:47:43;;;;;;;18.33;11.70;;;19.10;99.90;;;;;;5019641;28;20299;-84
2021/04/20 07:50:16;;;;;;;15.97;11.23;;;19.20;99.90;;;;;;5015693;28;20267;-83
2021/04/20 07:52:50;;;;;;;18.33;11.60;;;19.70;99.90;;;;;;5018099;28;20256;-81
2021/04/20 07:55:19;;;;;;;17.30;10.77;;;20.20;99.90;;;;;;5015941;28;20264;-81
2021/04/20 07:57:50;;;;;;;15.93;11.17;;;19.80;99.90;;;;;;5017733;28;20213;-82
2021/04/20 08:00:20;;;;;;;19.33;10.70;;;20.10;99.90;;;;;;5015591;28;20204;-82
2021/04/20 08:02:54;;;;;;;19.27;10.87;;;20.80;99.90;;;;;;5016465;28;20287;-81
2021/04/20 08:05:28;;;;;;;19.47;10.87;;;21.40;99.90;;;;;;5015527;28;20345;-82
2021/04/20 08:08:02;;;;;;;16.13;10.97;;;21.40;99.90;;;;;;5017815;28;20234;-83
2021/04/20 08:10:33;;;;;;;19.40;11.63;;;21.20;99.90;;;;;;5012080;28;20232;-82
2021/04/20 08:13:11;;;;;;;16.67;11.50;;;22.10;99.90;;;;;;5015674;28;20199;-83
2021/04/20 08:15:46;;;;;;;15.83;11.00;;;22.40;99.90;;;;;;5017410;28;20226;-85
2021/04/20 08:18:17;;;;;;;17.80;11.60;;;22.30;99.90;;;;;;5014058;28;20661;-82
2021/04/20 08:20:45;;;;;;;18.10;11.47;;;22.20;99.90;;;;;;5016786;28;20204;-81
2021/04/20 08:23:14;;;;;;;18.20;12.33;;;22.40;99.90;;;;;;5017996;28;20234;-82
2021/04/20 08:25:44;;;;;;;18.17;12.20;;;22.40;99.90;;;;;;5015773;28;20216;-82
2021/04/20 08:28:19;;;;;;;20.43;12.53;;;22.70;99.90;;;;;;5011476;28;20201;-82
2021/04/20 08:30:51;;;;;;;17.63;12.20;;;22.50;99.90;;;;;;5017095;28;20219;-83
2021/04/20 08:33:22;;;;;;;18.23;11.80;;;22.50;99.90;;;;;;5017810;28;20200;-83
2021/04/20 08:35:52;;;;;;;19.17;13.03;;;23.20;99.90;;;;;;5013465;28;20266;-83
2021/04/20 08:38:29;;;;;;;22.93;14.13;;;23.80;99.90;;;;;;5016846;28;20738;-82
2021/04/20 08:41:04;;;;;;;21.97;14.60;;;24.40;99.90;;;;;;5017058;28;20219;-81
2021/04/20 08:43:46;;;;;;;22.37;13.97;;;24.50;99.90;;;;;;5012207;28;20230;-80
2021/04/20 08:46:28;;;;;;;22.77;13.87;;;24.30;99.90;;;;;;5012009;28;20267;-81
2021/04/20 08:49:01;;;;;;;21.50;13.80;;;24.20;99.90;;;;;;5014403;28;20233;-81
2021/04/20 08:51:32;;;;;;;21.53;14.50;;;24.70;99.90;;;;;;5014571;28;20201;-80
2021/04/20 08:54:12;;;;;;;22.20;14.67;;;25.50;99.90;;;;;;5008505;28;20240;-82
2021/04/20 08:56:46;;;;;;;21.00;13.27;;;25.80;99.90;;;;;;5014955;28;20217;-81
2021/04/20 08:59:29;;;;;;;18.50;12.90;;;26.70;97.80;;;;;;5033066;28;20204;-79
2021/04/20 09:02:14;;;;;;;22.67;13.13;;;25.90;96.80;;;;;;5042926;28;20248;-81
2021/04/20 09:05:04;;;;;;;20.20;13.43;;;24.50;97.80;;;;;;5030523;28;20228;-82
2021/04/20 09:07:33;;;;;;;20.80;13.93;;;23.40;98.70;;;;;;5022561;28;20220;-82
2021/04/20 09:10:05;;;;;;;20.60;13.47;;;21.90;99.60;;;;;;5018917;28;20241;-83
2021/04/20 09:12:36;;;;;;;19.53;12.83;;;20.40;99.90;;;;;;5018330;28;20233;-80
2021/04/20 09:15:04;;;;;;;20.93;13.33;;;19.70;99.90;;;;;;5022234;28;20737;-80
2021/04/20 09:17:39;;;;;;;22.00;13.60;;;19.20;99.90;;;;;;5017253;28;20204;-81
2021/04/20 09:20:11;;;;;;;23.47;14.30;;;18.40;99.90;;;;;;5015073;28;20204;-81
2021/04/20 09:22:48;;;;;;;22.03;14.20;;;18.00;99.90;;;;;;5016441;28;20240;-81
2021/04/20 09:25:20;;;;;;;22.50;13.57;;;17.70;99.90;;;;;;5015844;28;20235;-82
2021/04/20 09:27:52;;;;;;;21.77;13.53;;;17.30;99.90;;;;;;5018670;28;20281;-82
2021/04/20 09:30:22;;;;;;;23.40;13.63;;;17.30;99.90;;;;;;5012705;28;20234;-81
2021/04/20 09:32:53;;;;;;;24.57;13.57;;;17.60;99.90;;;;;;5018285;28;20204;-81
2021/04/20 09:35:24;;;;;;;21.63;13.13;;;17.80;99.90;;;;;;5013873;28;20240;-80
2021/04/20 09:37:54;;;;;;;22.60;12.63;;;17.60;99.90;;;;;;5014507;28;20204;-80
2021/04/20 09:40:23;;;;;;;22.10;12.23;;;17.50;99.90;;;;;;5020044;28;20212;-81
2021/04/20 09:42:55;;;;;;;18.53;12.07;;;17.50;99.90;;;;;;5013621;28;20204;-80
2021/04/20 09:45:32;;;;;;;23.30;12.47;;;17.70;99.90;;;;;;5021689;28;20232;-80
2021/04/20 09:48:10;;;;;;;21.90;13.10;;;17.20;99.90;;;;;;5022712;28;20271;-81
2021/04/20 09:50:48;;;;;;;22.60;13.10;;;17.10;99.90;;;;;;5031451;28;20227;-81
2021/04/20 09:53:31;;;;;;;20.57;12.70;;;17.00;99.90;;;;;;5026777;28;20200;-81
2021/04/20 09:56:18;;;;;;;21.27;12.47;;;17.10;99.90;;;;;;5017600;28;20204;-81
2021/04/20 09:58:47;;;;;;;21.07;12.90;;;17.30;99.90;;;;;;5017410;28;20222;-82
2021/04/20 10:01:30;;;;;;;21.07;12.60;;;17.30;99.90;;;;;;5017362;28;20200;-81
2021/04/20 10:04:05;;;;;;;19.47;12.57;;;17.30;99.90;;;;;;5023798;28;20254;-80
2021/04/20 10:06:49;;;;;;;23.47;13.03;;;17.30;99.90;;;;;;5017484;28;20249;-81
2021/04/20 10:09:30;;;;;;;22.47;12.27;;;17.10;99.90;;;;;;5013524;28;20324;-80
2021/04/20 10:12:08;;;;;;;20.30;12.17;;;17.50;99.90;;;;;;5016629;28;20208;-81
2021/04/20 10:14:46;;;;;;;20.73;12.77;;;17.60;99.90;;;;;;5011870;28;20228;-81
2021/04/20 10:17:17;;;;;;;22.00;12.27;;;17.80;99.90;;;;;;5015620;28;20216;-80
2021/04/20 10:19:53;;;;;;;18.63;11.70;;;17.90;99.90;;;;;;5019938;28;20201;-82
2021/04/20 10:22:30;;;;;;;19.77;11.90;;;18.10;99.90;;;;;;5017813;28;20230;-80
2021/04/20 10:25:07;;;;;;;17.30;10.57;;;18.30;99.90;;;;;;5015789;28;20227;-79
2021/04/20 10:27:36;;;;;;;19.33;10.50;;;18.30;99.90;;;;;;5015210;28;20231;-80
2021/04/20 10:30:11;;;;;;;17.53;10.53;;;18.30;99.90;;;;;;5014514;28;20247;-80
2021/04/20 10:32:40;;;;;;;19.03;9.90;;;18.20;99.90;;;;;;5011052;28;20862;-80
2021/04/20 10:35:14;;;;;;;15.53;10.17;;;18.20;99.90;;;;;;5014504;28;20233;-80
2021/04/20 10:38:26;;;;;;;19.23;11.53;;;18.50;99.90;;;;;;5015807;28;20210;-80
2021/04/20 10:40:54;;;;;;;18.00;10.60;;;18.30;99.90;;;;;;5018351;28;20283;-78
2021/04/20 10:43:24;;;;;;;20.50;12.10;;;18.20;99.90;;;;;;5040440;28;20188;-80
2021/04/20 10:45:52;;;;;;;16.43;10.67;;;18.20;99.90;;;;;;5029752;28;20295;-80
2021/04/20 10:48:26;;;;;;;19.07;11.70;;;18.10;99.90;;;;;;5024643;28;20635;-82
2021/04/20 10:50:57;;;;;;;17.10;10.63;;;18.30;99.90;;;;;;5019577;28;20642;-81
2021/04/20 10:53:26;;;;;;;19.60;10.97;;;18.40;99.90;;;;;;5015251;28;20243;-80
2021/04/20 10:56:00;;;;;;;19.50;11.17;;;18.00;99.90;;;;;;5016328;28;20215;-80
2021/04/20 10:58:32;;;;;;;17.70;11.13;;;18.10;99.90;;;;;;5016652;28;20208;-81
2021/04/20 11:01:00;;;;;;;18.87;11.77;;;18.10;99.90;;;;;;5021377;28;20656;-83
2021/04/20 11:03:33;;;;;;;18.20;10.37;;;18.30;99.90;;;;;;5018138;28;20235;-81
2021/04/20 11:06:01;;;;;;;18.30;11.10;;;18.40;99.90;;;;;;5015930;28;20212;-82
2021/04/20 11:08:37;;;;;;;19.37;11.43;;;17.90;99.90;;;;;;5023017;28;20236;-81
2021/04/20 11:11:04;;;;;;;21.33;10.73;;;17.40;99.90;;;;;;5014511;28;20689;-80
2021/04/20 11:13:34;;;;;;;17.73;10.77;;;17.00;99.90;;;;;;5014992;28;20227;-82
2021/04/20 11:16:03;;;;;;;19.20;11.63;;;16.80;99.90;;;;;;5018773;28;20787;-80
2021/04/20 11:18:34;;;;;;;17.57;10.40;;;16.50;99.90;;;;;;5012451;28;20200;-81
2021/04/20 11:21:07;;;;;;;17.63;10.30;;;16.60;99.90;;;;;;5016251;28;20220;-85
2021/04/20 11:23:37;;;;;;;15.13;9.70;;;16.60;99.90;;;;;;5020971;28;20231;-82
2021/04/20 11:26:10;;;;;;;14.67;9.03;;;16.60;99.90;;;;;;5016705;28;20260;-82
2021/04/20 11:28:48;;;;;;;17.63;9.87;;;16.50;99.90;;;;;;5019281;28;20223;-82
2021/04/20 11:31:28;;;;;;;17.47;8.70;;;16.40;99.90;;;;;;5017301;28;20204;-80
2021/04/20 11:34:01;;;;;;;14.63;8.83;;;16.60;99.90;;;;;;5013136;28;20220;-81
2021/04/20 11:36:32;;;;;;;13.33;8.77;;;16.90;99.90;;;;;;5022787;28;20208;-82
2021/04/20 11:39:04;;;;;;;16.77;9.20;;;17.30;99.90;;;;;;5019013;28;20204;-81
2021/04/20 11:41:42;;;;;;;15.03;9.03;;;17.40;99.90;;;;;;5017913;28;20656;-82
2021/04/20 11:44:10;;;;;;;12.93;8.17;;;17.70;99.90;;;;;;5011018;28;20606;-81
2021/04/20 11:46:41;;;;;;;13.57;8.43;;;18.10;99.90;;;;;;5010024;28;20204;-81
2021/04/20 11:49:14;;;;;;;14.43;8.60;;;18.20;99.90;;;;;;5015805;28;20212;-81
2021/04/20 11:51:45;;;;;;;13.67;7.83;;;18.40;99.90;;;;;;5016336;28;20211;-82
2021/04/20 11:54:20;;;;;;;12.37;8.17;;;18.30;99.90;;;;;;5016486;28;20252;-82
2021/04/20 11:56:47;;;;;;;14.13;8.13;;;18.20;99.90;;;;;;5015726;28;20586;-82
2021/04/20 11:59:18;;;;;;;13.03;8.30;;;18.20;99.90;;;;;;5021820;28;20207;-82
2021/04/20 12:01:47;;;;;;;13.53;8.83;;;18.60;99.90;;;;;;5022061;28;20208;-82
2021/04/20 12:04:21;;;;;;;12.50;8.07;;;18.80;99.90;;;;;;5016057;28;20775;-82
2021/04/20 12:06:50;;;;;;;13.30;8.50;;;19.00;99.90;;;;;;5014265;28;20288;-81
2021/04/20 12:09:19;;;;;;;14.27;7.73;;;18.90;99.90;;;;;;5016427;28;20549;-81
2021/04/20 12:11:46;;;;;;;15.57;8.40;;;18.80;99.90;;;;;;5019533;28;20258;-81
2021/04/20 12:14:16;;;;;;;12.03;7.83;;;18.60;99.90;;;;;;5019141;28;20278;-81
2021/04/20 12:16:44;;;;;;;14.33;8.30;;;18.40;99.90;;;;;;5014323;28;20208;-81
2021/04/20 12:19:13;;;;;;;13.10;7.97;;;18.30;99.90;;;;;;5014699;28;20292;-81
2021/04/20 12:21:44;;;;;;;12.77;7.60;;;18.30;99.90;;;;;;5009510;28;20208;-81
2021/04/20 12:24:16;;;;;;;10.90;6.77;;;18.40;99.90;;;;;;5024770;28;20219;-80
2021/04/20 12:26:50;;;;;;;10.73;7.20;;;18.50;99.90;;;;;;5036441;28;20191;-82
2021/04/20 12:29:19;;;;;;;12.17;7.83;;;18.80;99.90;;;;;;5032120;28;20658;-82
2021/04/20 12:31:47;;;;;;;10.97;7.13;;;19.10;99.90;;;;;;5010914;28;20204;-80
2021/04/20 12:34:13;;;;;;;11.10;7.30;;;19.20;99.90;;;;;;5012339;28;20228;-82
2021/04/20 12:36:47;;;;;;;11.47;7.67;;;19.20;99.90;;;;;;5010260;28;20804;-82
2021/04/20 12:39:26;;;;;;;10.30;6.60;;;19.10;99.90;;;;;;5015709;28;20219;-81
2021/04/20 12:41:54;;;;;;;10.83;7.17;;;19.30;99.90;;;;;;5015558;28;20212;-82
2021/04/20 12:44:26;;;;;;;13.53;6.73;;;19.30;99.90;;;;;;5012696;28;20303;-81
2021/04/20 12:46:53;;;;;;;10.07;6.50;;;19.40;99.90;;;;;;5008132;28;20208;-82
2021/04/20 12:49:23;;;;;;;13.90;7.40;;;19.40;99.90;;;;;;5012057;28;20247;-82
2021/04/20 12:51:49;;;;;;;13.83;6.60;;;19.40;99.90;;;;;;5012119;28;20216;-81
2021/04/20 12:54:22;;;;;;;9.60;6.50;;;19.20;99.90;;;;;;5011896;28;20230;-81